Time;durP1;ratioP1;P1;durP2;ratioP2;P2;SDS_P1;SDS_P2;PMS_P1;PMS_P2;Temp;Humidity;BMP_temperature;BMP_pressure;BME280_temperature;BME280_humidity;BME280_pressure;Samples;Min_cycle;Max_cycle;Signal;HPM_P1;HPM_P2
2023/06/08 00:02:17;;;;;;;23.38;11.40;;;12.90;99.90;;;;;;4950107;29;20102;-75
2023/06/08 00:04:44;;;;;;;23.23;11.50;;;12.80;99.90;;;;;;4950001;28;20032;-76
2023/06/08 00:07:14;;;;;;;22.70;9.30;;;12.80;99.90;;;;;;4950255;29;20081;-74
2023/06/08 00:09:41;;;;;;;23.85;12.38;;;12.80;99.90;;;;;;4950305;29;20019;-73
2023/06/08 00:12:07;;;;;;;20.70;10.60;;;12.80;99.90;;;;;;4949090;29;20024;-76
2023/06/08 00:14:37;;;;;;;21.17;11.55;;;12.80;99.90;;;;;;4950316;29;20167;-73
2023/06/08 00:17:03;;;;;;;24.25;11.43;;;12.70;99.90;;;;;;4949712;28;20078;-77
2023/06/08 00:19:30;;;;;;;22.27;11.45;;;12.80;99.90;;;;;;4952053;29;20027;-74
2023/06/08 00:22:04;;;;;;;28.88;11.98;;;12.70;99.90;;;;;;4949844;29;20034;-77
2023/06/08 00:24:37;;;;;;;28.52;12.00;;;12.70;99.90;;;;;;4949882;29;20043;-73
2023/06/08 00:27:03;;;;;;;;;;;12.70;99.90;;;;;;4950777;29;20098;-73
2023/06/08 00:29:29;;;;;;;19.48;10.60;;;12.60;99.90;;;;;;4949693;29;19962;-73
2023/06/08 00:31:54;;;;;;;25.58;11.25;;;12.60;99.90;;;;;;4929855;29;20028;-76
2023/06/08 00:34:20;;;;;;;23.67;10.38;;;12.50;99.90;;;;;;4949727;29;20383;-73
2023/06/08 00:36:46;;;;;;;23.30;10.35;;;12.50;99.90;;;;;;4949987;29;20361;-74
2023/06/08 00:39:12;;;;;;;23.70;11.10;;;12.50;99.90;;;;;;4949841;29;20042;-74
2023/06/08 00:41:38;;;;;;;21.50;11.00;;;12.50;99.90;;;;;;4949514;29;20134;-75
2023/06/08 00:44:08;;;;;;;22.10;10.18;;;12.40;99.90;;;;;;4951014;29;20106;-77
2023/06/08 00:46:35;;;;;;;25.88;11.63;;;12.40;99.90;;;;;;4944990;29;20148;-73
2023/06/08 00:49:01;;;;;;;24.27;11.10;;;12.30;99.90;;;;;;4946730;29;20487;-73
2023/06/08 00:51:31;;;;;;;24.40;10.57;;;12.30;99.90;;;;;;4933052;29;20365;-72
2023/06/08 00:53:57;;;;;;;25.92;11.75;;;12.30;99.90;;;;;;4938293;29;20075;-74
2023/06/08 00:56:26;;;;;;;21.73;10.43;;;12.30;99.90;;;;;;4953641;29;20511;-73
2023/06/08 00:58:55;;;;;;;24.42;11.00;;;12.30;99.90;;;;;;4942546;29;20039;-74
2023/06/08 01:01:24;;;;;;;27.58;12.70;;;12.20;99.90;;;;;;4949018;28;20383;-73
2023/06/08 01:03:55;;;;;;;24.10;11.70;;;12.20;99.90;;;;;;4937436;29;20030;-71
2023/06/08 01:06:21;;;;;;;24.98;11.65;;;12.20;99.90;;;;;;4932905;29;20443;-73
2023/06/08 01:09:17;;;;;;;22.70;10.55;;;12.20;99.90;;;;;;4944888;29;20023;-74
2023/06/08 01:11:52;;;;;;;25.55;12.20;;;12.10;99.90;;;;;;4949236;29;20043;-73
2023/06/08 01:14:32;;;;;;;26.67;12.25;;;12.10;99.90;;;;;;4947856;28;20106;-73
2023/06/08 01:17:02;;;;;;;25.27;12.40;;;12.10;99.90;;;;;;4939800;29;20164;-74
2023/06/08 01:20:21;;;;;;;22.90;12.15;;;12.00;99.90;;;;;;4956516;29;20118;-71
2023/06/08 01:22:56;;;;;;;26.63;12.95;;;12.00;99.90;;;;;;4878842;29;20470;-73
2023/06/08 01:25:26;;;;;;;28.10;12.20;;;12.00;99.90;;;;;;4940360;29;20124;-73
2023/06/08 01:28:11;;;;;;;22.27;12.60;;;12.00;99.90;;;;;;4953075;29;20089;-75
2023/06/08 01:30:45;;;;;;;22.33;11.70;;;11.90;99.90;;;;;;4946869;29;20023;-74
2023/06/08 01:33:14;;;;;;;25.70;12.15;;;12.00;99.90;;;;;;4936376;29;20028;-76
2023/06/08 01:35:40;;;;;;;23.27;12.38;;;11.90;99.90;;;;;;4953313;29;20023;-73
2023/06/08 01:38:49;;;;;;;23.55;13.55;;;11.90;99.90;;;;;;4942576;29;20043;-74
2023/06/08 01:41:22;;;;;;;22.35;11.30;;;11.90;99.90;;;;;;4920777;29;20060;-77
2023/06/08 01:43:50;;;;;;;22.98;12.23;;;11.90;99.90;;;;;;4949587;29;20043;-77
2023/06/08 01:46:20;;;;;;;26.10;12.45;;;11.90;99.90;;;;;;4943293;29;20035;-74
2023/06/08 01:48:48;;;;;;;26.85;13.57;;;11.90;99.90;;;;;;4946255;29;20043;-73
2023/06/08 01:51:15;;;;;;;29.25;14.10;;;11.90;99.90;;;;;;4950909;29;20383;-73
2023/06/08 01:53:41;;;;;;;24.50;13.27;;;11.90;99.90;;;;;;4937542;29;20032;-73
2023/06/08 01:56:07;;;;;;;24.45;13.80;;;11.90;99.90;;;;;;4951047;29;20039;-75
2023/06/08 01:58:33;;;;;;;32.70;14.38;;;11.90;99.90;;;;;;4945670;29;20375;-76
2023/06/08 02:00:58;;;;;;;26.80;13.60;;;11.90;99.90;;;;;;4944562;29;20151;-72
2023/06/08 02:03:24;;;;;;;25.35;13.40;;;11.90;99.90;;;;;;4952012;29;20054;-73
2023/06/08 02:05:49;;;;;;;28.17;13.88;;;11.90;99.90;;;;;;4940273;29;20079;-74
2023/06/08 02:08:15;;;;;;;28.15;14.15;;;11.90;99.90;;;;;;4950028;29;20487;-72
2023/06/08 02:10:42;;;;;;;29.73;14.40;;;11.90;99.90;;;;;;4946509;29;20034;-73
2023/06/08 02:13:08;;;;;;;32.65;13.82;;;11.90;99.90;;;;;;4942917;29;20114;-76
2023/06/08 02:15:34;;;;;;;28.77;14.38;;;11.90;99.90;;;;;;4938303;29;20155;-75
2023/06/08 02:17:59;;;;;;;33.40;15.25;;;11.90;99.90;;;;;;4951527;29;20094;-73
2023/06/08 02:20:25;;;;;;;28.58;15.45;;;11.90;99.90;;;;;;4944248;29;20039;-73
2023/06/08 02:22:51;;;;;;;26.05;14.30;;;11.90;99.90;;;;;;4955921;29;20023;-73
2023/06/08 02:25:17;;;;;;;28.95;14.20;;;11.90;99.90;;;;;;4941724;29;20035;-73
2023/06/08 02:27:43;;;;;;;29.13;15.25;;;11.90;99.90;;;;;;4952820;29;20082;-73
2023/06/08 02:30:11;;;;;;;25.98;13.85;;;11.90;99.90;;;;;;4941978;29;20031;-73
2023/06/08 02:32:41;;;;;;;26.55;13.82;;;11.90;99.90;;;;;;4946477;29;20031;-76
2023/06/08 02:35:08;;;;;;;27.55;13.65;;;11.90;99.90;;;;;;4949652;29;20432;-73
2023/06/08 02:37:34;;;;;;;27.30;14.20;;;11.90;99.90;;;;;;4939582;29;20037;-73
2023/06/08 02:40:00;;;;;;;30.35;14.00;;;11.90;99.90;;;;;;4951460;29;20031;-73
2023/06/08 02:42:26;;;;;;;34.40;15.48;;;11.80;99.90;;;;;;4949052;29;20395;-74
2023/06/08 02:44:51;;;;;;;29.90;13.25;;;11.80;99.90;;;;;;4955295;29;20467;-75
2023/06/08 02:47:17;;;;;;;25.00;12.80;;;11.80;99.90;;;;;;4955288;29;20031;-73
2023/06/08 02:49:43;;;;;;;29.25;12.93;;;11.80;99.90;;;;;;4955503;29;20479;-74
2023/06/08 02:52:09;;;;;;;28.77;13.35;;;11.80;99.90;;;;;;4955226;29;20031;-72
2023/06/08 02:54:35;;;;;;;29.15;14.52;;;11.80;99.90;;;;;;4955306;29;20038;-76
2023/06/08 02:57:00;;;;;;;32.65;13.65;;;11.90;99.90;;;;;;4955293;29;20031;-72
2023/06/08 02:59:29;;;;;;;29.08;13.70;;;11.90;99.90;;;;;;4955488;29;20370;-73
2023/06/08 03:01:56;;;;;;;29.50;12.77;;;12.00;99.90;;;;;;4939254;29;20020;-73
2023/06/08 03:04:22;;;;;;;26.58;13.75;;;12.00;99.90;;;;;;4954795;29;20034;-75
2023/06/08 03:06:53;;;;;;;30.70;14.05;;;12.00;99.90;;;;;;4955242;29;20020;-73
2023/06/08 03:09:22;;;;;;;27.55;14.07;;;12.00;99.90;;;;;;4955247;29;20110;-73
2023/06/08 03:11:48;;;;;;;24.85;12.90;;;12.10;99.90;;;;;;4954853;29;20029;-74
2023/06/08 03:14:15;;;;;;;27.75;13.05;;;12.10;99.90;;;;;;4954928;29;20114;-74
2023/06/08 03:16:41;;;;;;;27.13;13.50;;;12.10;99.90;;;;;;4954778;29;20028;-73
2023/06/08 03:19:06;;;;;;;25.00;12.38;;;12.00;99.90;;;;;;4954109;29;20030;-75
2023/06/08 03:21:32;;;;;;;29.95;14.27;;;12.00;99.90;;;;;;4954578;29;20423;-74
2023/06/08 03:23:58;;;;;;;24.52;12.57;;;12.00;99.90;;;;;;4947899;29;20375;-71
2023/06/08 03:26:23;;;;;;;30.45;14.73;;;12.00;99.90;;;;;;4954611;29;20121;-72
2023/06/08 03:28:49;;;;;;;31.05;14.25;;;12.00;99.90;;;;;;4954463;29;20027;-73
2023/06/08 03:31:14;;;;;;;24.23;12.18;;;11.90;99.90;;;;;;4954422;29;20054;-72
2023/06/08 03:33:40;;;;;;;26.65;14.60;;;12.00;99.90;;;;;;4953759;29;20114;-77
2023/06/08 03:36:06;;;;;;;28.73;14.93;;;11.90;99.90;;;;;;4954149;29;20033;-76
2023/06/08 03:38:32;;;;;;;28.63;14.35;;;11.90;99.90;;;;;;4954328;28;20455;-73
2023/06/08 03:40:57;;;;;;;28.20;13.95;;;12.00;99.90;;;;;;4953857;29;20073;-75
2023/06/08 03:43:23;;;;;;;28.08;14.30;;;12.10;99.90;;;;;;4953336;29;20071;-75
2023/06/08 03:45:49;;;;;;;29.65;14.55;;;12.10;99.90;;;;;;4954349;29;20065;-74
2023/06/08 03:48:15;;;;;;;25.45;13.48;;;12.20;99.90;;;;;;4954429;29;20023;-76
2023/06/08 03:50:43;;;;;;;29.95;13.95;;;12.20;99.90;;;;;;4954648;29;20035;-73
2023/06/08 03:53:10;;;;;;;28.88;14.75;;;12.20;99.90;;;;;;4954422;29;20341;-77
2023/06/08 03:55:36;;;;;;;28.45;14.98;;;12.20;99.90;;;;;;4954325;29;20062;-72
2023/06/08 03:58:02;;;;;;;29.63;15.13;;;12.30;99.90;;;;;;4953920;29;20070;-77
2023/06/08 04:00:28;;;;;;;27.75;14.35;;;12.30;99.90;;;;;;4953453;29;20023;-74
2023/06/08 04:02:54;;;;;;;30.35;14.40;;;12.30;99.90;;;;;;4954462;29;20158;-71
2023/06/08 04:05:20;;;;;;;29.95;15.82;;;12.40;99.90;;;;;;4954396;29;20217;-72
2023/06/08 04:07:47;;;;;;;31.88;16.27;;;12.40;99.90;;;;;;4954430;29;20110;-72
2023/06/08 04:10:13;;;;;;;29.40;14.50;;;12.40;99.90;;;;;;4954378;29;20024;-72
2023/06/08 04:12:39;;;;;;;29.13;15.00;;;12.50;99.90;;;;;;4954341;29;20034;-73
2023/06/08 04:15:07;;;;;;;33.70;14.82;;;12.50;99.90;;;;;;4954189;29;20024;-74
2023/06/08 04:17:33;;;;;;;26.02;14.68;;;12.50;99.90;;;;;;4954334;29;20031;-74
2023/06/08 04:19:58;;;;;;;29.00;15.00;;;12.60;99.90;;;;;;4954596;29;20034;-75
2023/06/08 04:22:24;;;;;;;29.40;15.02;;;12.60;99.90;;;;;;4954582;29;20036;-77
2023/06/08 04:24:50;;;;;;;29.85;14.60;;;12.60;99.90;;;;;;4954337;29;20035;-73
2023/06/08 04:27:16;;;;;;;28.27;15.23;;;12.70;99.90;;;;;;4954088;29;20460;-74
2023/06/08 04:29:41;;;;;;;28.35;13.52;;;12.80;99.90;;;;;;4936823;29;20020;-73
2023/06/08 04:32:07;;;;;;;26.05;12.00;;;12.80;99.90;;;;;;4954025;29;20118;-73
2023/06/08 04:34:33;;;;;;;31.02;14.18;;;12.90;99.90;;;;;;4954132;29;20098;-73
2023/06/08 04:36:58;;;;;;;27.48;12.75;;;12.90;99.90;;;;;;4936926;29;20042;-72
2023/06/08 04:39:24;;;;;;;26.70;12.75;;;13.00;99.90;;;;;;4954254;29;20063;-75
2023/06/08 04:41:49;;;;;;;25.85;12.57;;;13.00;99.90;;;;;;4940670;28;20054;-73
2023/06/08 04:44:20;;;;;;;27.15;12.23;;;13.10;99.90;;;;;;4958740;28;20035;-73
2023/06/08 04:46:46;;;;;;;25.75;13.25;;;13.10;99.90;;;;;;4947204;29;20039;-75
2023/06/08 04:49:14;;;;;;;28.30;13.30;;;13.20;99.90;;;;;;4948969;28;20038;-73
2023/06/08 04:51:45;;;;;;;28.13;13.43;;;13.30;99.90;;;;;;4948680;29;20031;-74
2023/06/08 04:54:13;;;;;;;23.80;12.20;;;13.30;99.90;;;;;;4943828;29;20047;-73
2023/06/08 04:56:42;;;;;;;30.00;13.57;;;13.40;99.90;;;;;;4946312;29;20577;-74
2023/06/08 04:59:10;;;;;;;26.13;12.07;;;13.40;99.90;;;;;;4952043;29;20035;-73
2023/06/08 05:01:36;;;;;;;28.15;13.00;;;13.50;99.90;;;;;;4930560;29;20482;-77
2023/06/08 05:04:08;;;;;;;28.20;13.75;;;13.60;99.90;;;;;;4944865;29;20086;-74
2023/06/08 05:06:34;;;;;;;29.13;11.97;;;13.60;99.90;;;;;;4954137;29;20118;-76
2023/06/08 05:09:00;;;;;;;26.52;12.57;;;13.70;99.90;;;;;;4940358;29;20335;-75
2023/06/08 05:11:26;;;;;;;25.25;12.00;;;13.80;99.90;;;;;;4949656;29;20078;-73
2023/06/08 05:13:52;;;;;;;22.98;11.73;;;13.80;99.90;;;;;;4949702;29;20035;-74
2023/06/08 05:16:17;;;;;;;26.25;12.75;;;13.80;99.90;;;;;;4942624;29;20391;-73
2023/06/08 05:18:43;;;;;;;25.42;11.68;;;13.90;99.90;;;;;;4953672;29;20502;-74
2023/06/08 05:21:08;;;;;;;22.20;11.20;;;13.90;99.90;;;;;;4943556;29;20027;-74
2023/06/08 05:23:34;;;;;;;21.80;10.73;;;13.90;99.90;;;;;;4948306;29;20038;-75
2023/06/08 05:25:59;;;;;;;26.02;11.75;;;13.90;99.90;;;;;;4950283;29;20410;-73
2023/06/08 05:28:25;;;;;;;28.85;13.50;;;14.00;99.90;;;;;;4941201;29;20452;-77
2023/06/08 05:30:51;;;;;;;23.80;10.95;;;14.00;99.90;;;;;;4953687;29;20436;-74
2023/06/08 05:33:16;;;;;;;26.58;11.07;;;14.10;99.90;;;;;;4944364;29;20106;-74
2023/06/08 05:35:42;;;;;;;22.45;11.45;;;14.20;99.90;;;;;;4951830;28;20067;-74
2023/06/08 05:38:08;;;;;;;21.15;9.85;;;14.30;99.90;;;;;;4960620;28;20544;-74
2023/06/08 05:40:34;;;;;;;25.40;12.35;;;14.40;99.90;;;;;;4958622;28;20086;-74
2023/06/08 05:42:59;;;;;;;22.10;11.80;;;14.50;99.90;;;;;;4959341;28;20389;-74
2023/06/08 05:45:25;;;;;;;22.20;10.20;;;14.60;99.90;;;;;;4955466;28;20031;-73
2023/06/08 05:47:51;;;;;;;25.23;11.52;;;14.70;99.90;;;;;;4955456;29;20026;-73
2023/06/08 05:50:17;;;;;;;25.73;11.55;;;14.80;99.90;;;;;;4959045;28;20024;-73
2023/06/08 05:52:42;;;;;;;23.83;10.57;;;14.80;99.90;;;;;;4957775;28;20032;-73
2023/06/08 05:55:08;;;;;;;21.75;10.15;;;14.90;99.90;;;;;;4956299;29;20070;-72
2023/06/08 05:57:34;;;;;;;24.52;9.52;;;15.10;99.90;;;;;;4956201;29;20064;-74
2023/06/08 06:00:00;;;;;;;22.65;10.88;;;15.20;99.90;;;;;;4956330;28;20035;-74
2023/06/08 06:02:25;;;;;;;20.05;9.18;;;15.50;99.90;;;;;;4956682;29;20035;-76
2023/06/08 06:04:51;;;;;;;23.73;10.70;;;15.60;99.90;;;;;;4953360;28;20039;-74
2023/06/08 06:07:16;;;;;;;21.38;9.45;;;15.80;99.90;;;;;;4971991;28;20030;-76
2023/06/08 06:09:42;;;;;;;19.33;8.88;;;15.90;99.90;;;;;;4960406;28;20035;-78
2023/06/08 06:12:07;;;;;;;20.88;9.15;;;16.10;99.90;;;;;;4942394;28;20039;-73
2023/06/08 06:14:38;;;;;;;22.08;9.20;;;16.50;99.90;;;;;;4962358;28;20082;-75
2023/06/08 06:17:05;;;;;;;17.80;7.95;;;16.90;99.90;;;;;;4954845;29;20034;-72
2023/06/08 06:19:36;;;;;;;16.95;8.40;;;17.50;99.90;;;;;;4950566;29;20020;-73
2023/06/08 06:22:03;;;;;;;18.38;7.45;;;18.00;99.90;;;;;;4944287;29;20380;-73
2023/06/08 06:24:28;;;;;;;20.05;8.05;;;18.20;99.90;;;;;;4954279;28;20639;-73
2023/06/08 06:26:54;;;;;;;17.25;8.38;;;18.00;99.90;;;;;;4959541;28;20162;-72
2023/06/08 06:29:20;;;;;;;17.05;7.40;;;17.90;99.90;;;;;;4959672;28;20106;-74
2023/06/08 06:31:45;;;;;;;21.20;7.93;;;17.80;99.90;;;;;;4958423;28;20074;-72
2023/06/08 06:34:11;;;;;;;17.88;8.10;;;17.80;99.90;;;;;;4962145;28;20506;-74
2023/06/08 06:36:36;;;;;;;19.52;7.45;;;17.50;99.90;;;;;;4957274;28;20036;-72
2023/06/08 06:39:02;;;;;;;18.65;7.75;;;17.40;99.90;;;;;;4960654;28;20057;-74
2023/06/08 06:41:28;;;;;;;21.08;8.48;;;17.40;99.90;;;;;;4938585;28;20542;-73
2023/06/08 06:43:53;;;;;;;16.33;7.90;;;17.30;99.90;;;;;;4964765;28;20477;-73
2023/06/08 06:46:21;;;;;;;19.10;7.18;;;17.20;99.90;;;;;;4959343;28;20054;-73
2023/06/08 06:48:47;;;;;;;21.23;8.93;;;17.10;99.90;;;;;;4942879;28;20060;-75
2023/06/08 06:51:12;;;;;;;17.92;8.70;;;17.10;99.90;;;;;;4950403;29;20067;-73
2023/06/08 06:53:38;;;;;;;20.42;8.27;;;17.20;99.90;;;;;;4944858;29;20039;-74
2023/06/08 06:56:03;;;;;;;19.67;8.65;;;17.30;99.90;;;;;;4943700;29;20517;-73
2023/06/08 06:58:29;;;;;;;18.65;7.45;;;17.50;99.90;;;;;;4951464;28;20035;-74
2023/06/08 07:00:55;;;;;;;18.63;7.38;;;17.70;99.90;;;;;;4949090;29;20055;-76
2023/06/08 07:03:21;;;;;;;21.80;6.55;;;18.10;99.90;;;;;;4948734;29;20540;-77
2023/06/08 07:05:47;;;;;;;13.68;6.90;;;18.80;99.90;;;;;;4944985;29;20491;-75
2023/06/08 07:08:13;;;;;;;18.33;7.03;;;19.30;99.90;;;;;;4951754;29;20027;-75
2023/06/08 07:10:38;;;;;;;16.63;6.82;;;19.90;99.90;;;;;;4953804;29;20082;-76
2023/06/08 07:13:04;;;;;;;16.35;5.68;;;20.40;99.90;;;;;;4953068;28;20024;-74
2023/06/08 07:15:30;;;;;;;16.85;6.80;;;20.70;99.90;;;;;;4953781;29;20431;-76
2023/06/08 07:17:55;;;;;;;18.60;6.68;;;20.90;99.90;;;;;;4953581;29;20066;-74
2023/06/08 07:20:21;;;;;;;15.60;7.25;;;21.10;99.90;;;;;;4952611;28;20031;-76
2023/06/08 07:22:46;;;;;;;20.77;7.90;;;21.40;99.90;;;;;;4947983;29;20118;-73
2023/06/08 07:25:14;;;;;;;16.73;8.00;;;22.10;99.10;;;;;;4953609;29;20233;-73
2023/06/08 07:27:39;;;;;;;17.85;7.60;;;22.30;98.10;;;;;;4952134;29;20400;-73
2023/06/08 07:30:06;;;;;;;14.23;6.70;;;22.50;97.80;;;;;;4953821;29;20054;-74
2023/06/08 07:32:32;;;;;;;12.40;5.30;;;22.80;97.10;;;;;;4953868;29;20035;-74
2023/06/08 07:34:58;;;;;;;17.10;6.88;;;22.70;96.50;;;;;;4964424;28;20015;-74
2023/06/08 07:37:23;;;;;;;17.30;7.88;;;22.30;96.90;;;;;;4966581;28;20035;-76
2023/06/08 07:39:49;;;;;;;15.25;7.18;;;22.20;97.10;;;;;;4952945;29;20038;-75
2023/06/08 07:42:14;;;;;;;16.83;7.35;;;22.40;97.00;;;;;;4954031;29;20093;-73
2023/06/08 07:44:40;;;;;;;18.80;7.78;;;22.50;96.80;;;;;;4937968;29;20028;-77
2023/06/08 07:47:06;;;;;;;15.55;7.03;;;22.50;96.70;;;;;;4956140;28;20487;-74
2023/06/08 07:49:31;;;;;;;18.38;6.68;;;22.70;96.70;;;;;;4964059;28;20471;-75
2023/06/08 07:51:57;;;;;;;17.55;6.75;;;23.00;96.40;;;;;;4954732;29;20427;-76
2023/06/08 07:54:24;;;;;;;14.25;6.32;;;22.90;96.30;;;;;;4952498;29;20031;-73
2023/06/08 07:56:50;;;;;;;18.42;7.53;;;22.90;96.20;;;;;;4951799;29;20082;-73
2023/06/08 07:59:16;;;;;;;18.10;5.85;;;23.10;96.20;;;;;;4937127;29;20027;-73
2023/06/08 08:01:42;;;;;;;11.13;6.05;;;23.00;95.50;;;;;;4945110;29;20036;-74
2023/06/08 08:04:08;;;;;;;14.27;6.43;;;22.80;95.80;;;;;;4947674;29;20039;-77
2023/06/08 08:06:34;;;;;;;17.55;6.25;;;22.60;96.20;;;;;;4953307;29;20043;-75
2023/06/08 08:08:59;;;;;;;18.80;7.10;;;22.50;96.60;;;;;;4938540;29;20019;-74
2023/06/08 08:11:26;;;;;;;17.83;6.22;;;22.50;96.70;;;;;;4947419;29;20039;-74
2023/06/08 08:13:52;;;;;;;17.35;5.90;;;22.60;96.20;;;;;;4945298;29;20027;-76
2023/06/08 08:16:18;;;;;;;15.82;6.47;;;22.70;96.10;;;;;;4940080;29;20413;-74
2023/06/08 08:18:44;;;;;;;17.77;6.45;;;22.80;96.20;;;;;;4949820;29;20051;-76
2023/06/08 08:21:10;;;;;;;15.48;6.90;;;23.10;96.00;;;;;;4940051;29;20050;-75
2023/06/08 08:23:37;;;;;;;18.25;6.80;;;23.50;95.40;;;;;;4946037;29;20376;-75
2023/06/08 08:26:02;;;;;;;11.70;6.18;;;23.90;94.90;;;;;;4946860;29;20102;-76
2023/06/08 08:28:28;;;;;;;12.77;6.07;;;24.40;94.00;;;;;;4939302;29;20130;-75
2023/06/08 08:30:54;;;;;;;12.75;6.03;;;25.20;93.40;;;;;;4938930;29;20520;-76
2023/06/08 08:33:20;;;;;;;13.07;5.45;;;26.00;92.60;;;;;;4948122;29;20473;-75
2023/06/08 08:35:45;;;;;;;16.25;5.90;;;26.80;91.40;;;;;;4944499;29;20069;-74
2023/06/08 08:38:12;;;;;;;10.77;5.32;;;26.90;91.30;;;;;;4940890;29;20166;-73
2023/06/08 08:40:41;;;;;;;13.48;5.32;;;27.00;90.80;;;;;;4950616;29;20110;-76
2023/06/08 08:43:06;;;;;;;17.70;5.85;;;27.50;90.60;;;;;;4952057;29;20055;-74
2023/06/08 08:45:34;;;;;;;14.23;5.38;;;28.00;89.40;;;;;;4962155;28;20126;-75
2023/06/08 08:48:01;;;;;;;14.25;5.43;;;28.50;88.40;;;;;;4961055;28;20118;-75
2023/06/08 08:50:32;;;;;;;10.50;4.82;;;28.90;87.00;;;;;;4954104;29;20427;-75
2023/06/08 08:52:59;;;;;;;11.82;5.15;;;29.20;85.60;;;;;;4953981;29;20447;-75
2023/06/08 08:55:27;;;;;;;14.75;4.93;;;29.20;85.10;;;;;;4953768;29;20047;-76
2023/06/08 08:57:58;;;;;;;9.95;4.38;;;29.40;84.40;;;;;;4953538;28;20067;-75
2023/06/08 09:00:24;;;;;;;11.70;5.03;;;29.40;84.40;;;;;;4953860;29;20035;-73
2023/06/08 09:02:51;;;;;;;12.55;5.38;;;29.00;84.90;;;;;;4953879;29;20031;-73
2023/06/08 09:05:17;;;;;;;10.82;4.85;;;29.20;84.00;;;;;;4953708;29;20472;-76
2023/06/08 09:07:42;;;;;;;9.95;4.60;;;29.40;83.50;;;;;;4953841;29;20047;-74
2023/06/08 09:10:20;;;;;;;11.75;4.63;;;29.60;83.30;;;;;;4953762;29;20111;-74
2023/06/08 09:12:47;;;;;;;11.63;4.55;;;29.90;83.30;;;;;;4953615;29;20035;-73
2023/06/08 09:15:23;;;;;;;14.05;5.63;;;30.10;82.50;;;;;;4953848;29;20030;-75
2023/06/08 09:17:51;;;;;;;12.82;4.53;;;30.30;82.30;;;;;;4953834;29;20035;-75
2023/06/08 09:20:30;;;;;;;14.02;5.13;;;30.50;81.40;;;;;;4953754;28;20028;-76
2023/06/08 09:22:56;;;;;;;14.95;5.00;;;30.60;80.90;;;;;;4953567;29;20090;-74
2023/06/08 09:25:36;;;;;;;11.07;4.60;;;30.80;81.00;;;;;;4953448;29;20051;-74
2023/06/08 09:28:28;;;;;;;11.57;4.57;;;31.20;80.40;;;;;;4953591;29;20027;-74
2023/06/08 09:30:57;;;;;;;10.18;4.43;;;31.50;79.00;;;;;;4953595;28;20035;-74
2023/06/08 09:33:29;;;;;;;10.98;4.10;;;31.70;77.60;;;;;;4953589;29;20036;-73
2023/06/08 09:35:57;;;;;;;10.65;4.47;;;31.80;77.30;;;;;;4955447;28;20063;-76
2023/06/08 09:38:25;;;;;;;9.80;4.15;;;32.20;77.10;;;;;;4956908;29;20063;-74
2023/06/08 09:40:51;;;;;;;11.73;4.70;;;32.30;76.30;;;;;;4956994;29;20019;-75
2023/06/08 09:43:30;;;;;;;12.70;4.80;;;32.10;75.90;;;;;;4956721;29;20122;-76
2023/06/08 09:45:56;;;;;;;12.20;4.70;;;32.20;75.60;;;;;;4956748;29;20036;-75
2023/06/08 09:48:21;;;;;;;11.93;4.65;;;32.50;74.30;;;;;;4957023;29;20034;-75
2023/06/08 09:50:47;;;;;;;8.63;3.95;;;32.60;74.50;;;;;;4939277;29;20039;-75
2023/06/08 09:53:14;;;;;;;10.27;4.32;;;32.70;74.00;;;;;;4956887;29;20032;-74
2023/06/08 09:55:41;;;;;;;10.05;4.65;;;32.70;73.30;;;;;;4956931;29;20031;-73
2023/06/08 09:58:07;;;;;;;10.55;4.80;;;32.50;73.70;;;;;;4957088;29;20059;-75
2023/06/08 10:00:35;;;;;;;12.23;4.50;;;32.50;74.10;;;;;;4956835;29;20039;-75
2023/06/08 10:03:06;;;;;;;14.32;5.15;;;32.60;73.90;;;;;;4941230;29;20083;-75
2023/06/08 10:05:35;;;;;;;11.88;4.90;;;32.70;73.90;;;;;;4956812;29;20047;-75
2023/06/08 10:08:02;;;;;;;12.23;4.72;;;32.90;73.90;;;;;;4956702;28;20046;-76
2023/06/08 10:10:38;;;;;;;13.23;4.60;;;33.20;73.20;;;;;;4956638;29;20157;-74
2023/06/08 10:13:09;;;;;;;10.07;4.15;;;33.50;73.00;;;;;;4945756;29;20563;-74
2023/06/08 10:15:35;;;;;;;12.25;4.55;;;33.60;72.40;;;;;;4956789;29;20023;-74
2023/06/08 10:18:02;;;;;;;12.95;4.72;;;33.40;72.10;;;;;;4956423;29;20118;-75
2023/06/08 10:20:29;;;;;;;11.02;4.55;;;33.00;72.90;;;;;;4956557;29;20027;-75
2023/06/08 10:22:59;;;;;;;15.32;4.60;;;32.30;73.70;;;;;;4956513;29;20110;-74
2023/06/08 10:25:30;;;;;;;10.93;4.50;;;31.80;72.70;;;;;;4956292;29;20039;-74
2023/06/08 10:28:06;;;;;;;14.93;4.88;;;31.90;73.80;;;;;;4956410;29;20459;-78
2023/06/08 10:30:39;;;;;;;10.23;4.07;;;32.30;73.70;;;;;;4956289;29;20031;-74
2023/06/08 10:33:20;;;;;;;12.55;4.78;;;32.70;73.30;;;;;;4941206;29;20158;-75
2023/06/08 10:36:06;;;;;;;12.57;4.50;;;32.80;72.90;;;;;;4956301;29;20085;-77
2023/06/08 10:38:37;;;;;;;10.90;4.75;;;33.20;72.80;;;;;;4955894;29;20046;-75
2023/06/08 10:41:03;;;;;;;13.35;5.18;;;33.40;72.90;;;;;;4940624;29;20486;-75
2023/06/08 10:43:29;;;;;;;13.98;4.93;;;33.50;72.60;;;;;;4956029;29;20058;-75
2023/06/08 10:45:55;;;;;;;15.13;4.95;;;33.30;72.30;;;;;;4945031;29;20074;-76
2023/06/08 10:48:21;;;;;;;15.98;5.05;;;33.40;72.00;;;;;;4949546;29;20044;-75
2023/06/08 10:50:49;;;;;;;13.82;4.70;;;33.70;71.40;;;;;;4939934;29;20027;-77
2023/06/08 10:53:19;;;;;;;12.38;4.15;;;34.20;71.20;;;;;;4950468;29;20420;-74
2023/06/08 10:55:48;;;;;;;16.45;5.00;;;34.50;70.00;;;;;;4946091;29;20035;-74
2023/06/08 10:58:21;;;;;;;15.65;5.00;;;34.70;69.40;;;;;;4942484;29;20039;-74
2023/06/08 11:01:06;;;;;;;11.43;4.47;;;34.60;69.80;;;;;;4952300;29;20031;-74
2023/06/08 11:03:46;;;;;;;13.18;5.05;;;34.30;70.00;;;;;;4944299;29;20023;-77
2023/06/08 11:06:15;;;;;;;14.75;4.95;;;34.10;70.20;;;;;;4942694;29;20039;-76
2023/06/08 11:08:41;;;;;;;11.82;4.72;;;34.10;70.20;;;;;;4937253;29;20163;-77
2023/06/08 11:11:09;;;;;;;15.68;4.60;;;34.10;70.20;;;;;;4940798;29;20126;-74
2023/06/08 11:13:35;;;;;;;16.50;4.90;;;34.20;69.70;;;;;;4947126;29;20074;-74
2023/06/08 11:16:01;;;;;;;15.15;5.13;;;34.40;69.60;;;;;;4947498;29;20027;-74
2023/06/08 11:18:29;;;;;;;12.10;4.90;;;34.60;70.00;;;;;;4940335;29;20163;-75
2023/06/08 11:20:58;;;;;;;13.60;4.75;;;34.60;69.90;;;;;;4951929;29;20114;-74
2023/06/08 11:23:24;;;;;;;13.35;4.72;;;34.70;69.60;;;;;;4942918;29;20105;-76
2023/06/08 11:25:51;;;;;;;13.75;4.88;;;34.60;69.80;;;;;;4945048;29;20033;-75
2023/06/08 11:28:16;;;;;;;11.73;5.05;;;34.40;70.20;;;;;;4949618;29;20035;-76
2023/06/08 11:30:42;;;;;;;12.70;5.07;;;34.30;70.60;;;;;;4935405;29;20028;-76
2023/06/08 11:33:10;;;;;;;14.32;5.00;;;34.60;70.40;;;;;;4950674;29;20056;-77
2023/06/08 11:35:35;;;;;;;14.02;5.35;;;34.70;69.50;;;;;;4944123;29;20062;-76
2023/06/08 11:38:02;;;;;;;13.68;4.65;;;34.60;69.30;;;;;;4943348;29;20056;-76
2023/06/08 11:40:29;;;;;;;14.85;5.28;;;34.50;69.30;;;;;;4949438;29;20046;-75
2023/06/08 11:42:57;;;;;;;12.65;4.88;;;34.30;69.70;;;;;;4950902;29;20048;-75
2023/06/08 11:45:23;;;;;;;13.07;4.28;;;34.30;70.40;;;;;;4941874;29;20062;-74
2023/06/08 11:47:54;;;;;;;13.40;4.40;;;34.50;70.20;;;;;;4934487;29;20090;-77
2023/06/08 11:50:20;;;;;;;12.30;4.40;;;34.60;69.80;;;;;;4949660;29;20035;-75
2023/06/08 11:52:46;;;;;;;18.52;4.80;;;34.40;70.10;;;;;;4938993;29;20038;-77
2023/06/08 11:55:22;;;;;;;12.77;4.72;;;34.50;70.10;;;;;;4949369;29;20059;-76
2023/06/08 11:57:55;;;;;;;11.95;4.85;;;34.70;70.70;;;;;;4945056;28;20027;-74
2023/06/08 12:00:29;;;;;;;10.55;4.05;;;34.50;70.10;;;;;;4934146;29;20028;-75
2023/06/08 12:02:57;;;;;;;15.10;4.78;;;34.30;70.50;;;;;;4951293;29;20023;-75
2023/06/08 12:05:28;;;;;;;13.10;4.72;;;34.30;70.80;;;;;;4941647;29;20031;-77
2023/06/08 12:08:23;;;;;;;14.18;4.55;;;34.40;71.00;;;;;;4934072;29;20055;-75
2023/06/08 12:10:48;;;;;;;14.20;4.88;;;34.50;70.90;;;;;;4935605;29;20415;-74
2023/06/08 12:13:15;;;;;;;10.25;5.20;;;34.50;70.50;;;;;;4940543;29;20046;-75
2023/06/08 12:15:44;;;;;;;11.27;5.00;;;34.50;71.10;;;;;;4953378;29;20438;-74
2023/06/08 12:18:11;;;;;;;14.98;4.65;;;34.40;71.50;;;;;;4941367;29;20031;-76
2023/06/08 12:20:37;;;;;;;12.60;4.70;;;34.40;71.40;;;;;;4935935;29;20106;-75
2023/06/08 12:23:03;;;;;;;9.48;3.95;;;34.40;71.30;;;;;;4950642;29;20412;-74
2023/06/08 12:25:32;;;;;;;14.68;4.82;;;34.10;71.10;;;;;;4942182;29;20062;-74
2023/06/08 12:27:59;;;;;;;11.35;3.92;;;33.80;71.60;;;;;;4943015;29;20036;-75
2023/06/08 12:30:27;;;;;;;15.57;4.97;;;33.80;71.60;;;;;;4949878;29;20038;-74
2023/06/08 12:32:54;;;;;;;13.38;4.78;;;33.40;72.00;;;;;;4938300;29;20036;-74
2023/06/08 12:35:21;;;;;;;10.55;4.28;;;32.70;72.80;;;;;;4948167;29;20492;-75
2023/06/08 12:37:49;;;;;;;11.75;4.78;;;32.20;73.30;;;;;;4944457;29;20034;-74